Time;durP1;ratioP1;P1;durP2;ratioP2;P2;SDS_P1;SDS_P2;PMS_P1;PMS_P2;Temp;Humidity;BMP_temperature;BMP_pressure;BME280_temperature;BME280_humidity;BME280_pressure;Samples;Min_cycle;Max_cycle;Signal;HPM_P1;HPM_P2
2023/10/15 00:02:13;;;;;;;5.50;1.88;;;9.40;99.90;;;;;;5030922;28;20088;-47
2023/10/15 00:04:39;;;;;;;4.55;2.28;;;9.40;99.90;;;;;;5030932;28;20030;-48
2023/10/15 00:07:06;;;;;;;5.45;1.90;;;9.40;99.90;;;;;;5022713;28;20515;-43
2023/10/15 00:09:33;;;;;;;8.10;1.98;;;9.40;99.90;;;;;;5011451;28;20024;-47
2023/10/15 00:11:59;;;;;;;4.20;1.77;;;9.40;99.90;;;;;;5011349;28;20512;-47
2023/10/15 00:14:24;;;;;;;5.35;3.15;;;9.40;99.90;;;;;;5011313;28;20117;-44
2023/10/15 00:16:50;;;;;;;7.30;1.92;;;9.40;99.90;;;;;;5011372;28;20108;-43
2023/10/15 00:19:16;;;;;;;10.23;2.38;;;9.30;99.90;;;;;;5011506;28;20485;-44
2023/10/15 00:21:41;;;;;;;4.70;1.75;;;9.20;99.90;;;;;;5011431;28;20486;-48
2023/10/15 00:24:10;;;;;;;7.32;2.47;;;9.20;99.90;;;;;;5010251;28;20022;-44
2023/10/15 00:26:38;;;;;;;4.32;2.08;;;9.20;99.90;;;;;;5010749;28;20161;-46
2023/10/15 00:29:08;;;;;;;10.45;1.88;;;9.20;99.90;;;;;;5015063;28;20477;-46
2023/10/15 00:31:34;;;;;;;6.07;2.00;;;9.10;99.90;;;;;;5013508;28;20034;-47
2023/10/15 00:33:59;;;;;;;3.47;1.58;;;9.10;99.90;;;;;;5014687;28;20029;-48
2023/10/15 00:36:26;;;;;;;5.88;2.22;;;9.00;99.90;;;;;;5014454;28;20465;-44
2023/10/15 00:38:52;;;;;;;6.32;2.03;;;9.00;99.90;;;;;;5014578;28;20022;-50
2023/10/15 00:41:17;;;;;;;10.15;2.00;;;8.90;99.90;;;;;;5014460;28;20034;-46
2023/10/15 00:43:54;;;;;;;6.43;2.63;;;8.90;99.90;;;;;;5014471;28;20097;-46
2023/10/15 00:46:24;;;;;;;5.00;1.85;;;8.80;99.90;;;;;;5014218;28;20026;-50
2023/10/15 00:48:50;;;;;;;6.32;2.17;;;8.80;99.90;;;;;;5014840;28;20028;-46
2023/10/15 00:51:20;;;;;;;16.90;2.92;;;8.70;99.90;;;;;;5014131;28;20178;-43
2023/10/15 00:53:54;;;;;;;9.63;2.88;;;8.70;99.90;;;;;;5014057;28;20026;-46
2023/10/15 00:56:28;;;;;;;5.03;1.70;;;8.60;99.90;;;;;;5013940;28;20102;-44
2023/10/15 01:01:38;;;;;;;5.55;1.85;;;8.60;99.90;;;;;;5014140;28;20030;-44
2023/10/15 01:04:07;;;;;;;8.82;2.15;;;8.60;99.90;;;;;;5013874;28;20018;-47
2023/10/15 01:09:10;;;;;;;6.32;2.40;;;8.50;99.90;;;;;;5014213;28;20052;-48
2023/10/15 01:12:12;;;;;;;11.00;2.30;;;8.40;99.90;;;;;;5013954;28;20049;-46
2023/10/15 01:14:45;;;;;;;6.50;2.67;;;8.40;99.90;;;;;;5013777;28;20109;-48
2023/10/15 01:17:11;;;;;;;10.52;2.33;;;8.40;99.90;;;;;;5013766;28;20029;-44
2023/10/15 01:19:36;;;;;;;5.35;2.05;;;8.40;99.90;;;;;;5012509;28;20030;-45
2023/10/15 01:22:04;;;;;;;4.82;2.90;;;8.40;99.90;;;;;;5013684;28;20521;-49
2023/10/15 01:24:34;;;;;;;7.28;1.90;;;8.40;99.90;;;;;;5013640;28;20394;-44
2023/10/15 01:29:33;;;;;;;8.95;2.03;;;8.40;99.90;;;;;;5013568;28;20426;-46
2023/10/15 01:32:03;;;;;;;3.65;2.08;;;8.50;99.90;;;;;;5013562;28;20524;-46
2023/10/15 01:34:38;;;;;;;10.77;2.38;;;8.40;99.90;;;;;;5013523;28;20026;-44
2023/10/15 01:37:21;;;;;;;6.30;2.20;;;8.40;99.90;;;;;;5013105;28;20096;-44
2023/10/15 01:39:48;;;;;;;4.25;2.05;;;8.30;99.90;;;;;;5013483;28;20109;-44
2023/10/15 01:42:53;;;;;;;8.95;2.20;;;8.20;99.90;;;;;;5013301;28;20038;-45
2023/10/15 01:48:24;;;;;;;5.45;2.20;;;8.20;99.90;;;;;;5013027;28;20037;-50
2023/10/15 01:50:44;;;;;;;4.22;2.50;;;8.20;99.90;;;;;;5009878;28;20033;-48
2023/10/15 01:53:10;;;;;;;4.68;2.55;;;8.10;99.90;;;;;;5013699;28;20022;-45
2023/10/15 01:55:36;;;;;;;4.97;2.22;;;8.00;99.90;;;;;;5013422;28;20168;-46
2023/10/15 01:58:12;;;;;;;6.57;1.83;;;8.00;99.90;;;;;;5012842;28;20496;-46
2023/10/15 02:03:04;;;;;;;5.93;1.98;;;8.00;99.90;;;;;;5013307;28;20062;-46
2023/10/15 02:05:42;;;;;;;4.30;2.30;;;8.00;99.90;;;;;;5013001;28;20025;-44
2023/10/15 02:08:12;;;;;;;5.95;2.13;;;7.90;99.90;;;;;;5012718;28;20026;-48
2023/10/15 02:10:39;;;;;;;4.50;1.73;;;7.90;99.90;;;;;;5012922;28;20029;-45
2023/10/15 02:13:08;;;;;;;4.35;1.98;;;7.90;99.90;;;;;;5012965;28;20030;-45
2023/10/15 02:15:39;;;;;;;5.28;1.95;;;7.90;99.90;;;;;;5011474;28;20562;-46
2023/10/15 02:18:08;;;;;;;7.45;2.00;;;7.90;99.90;;;;;;5012768;28;20022;-45
2023/10/15 02:21:00;;;;;;;2.88;1.80;;;7.90;99.90;;;;;;5012760;28;20033;-47
2023/10/15 02:23:26;;;;;;;4.05;2.28;;;7.90;99.90;;;;;;5012813;28;20018;-50
2023/10/15 02:25:58;;;;;;;6.80;2.80;;;7.90;99.90;;;;;;5012662;28;20022;-45
2023/10/15 02:28:27;;;;;;;7.93;2.17;;;8.00;99.90;;;;;;5012932;28;20022;-44
2023/10/15 02:31:19;;;;;;;8.48;3.33;;;8.00;99.90;;;;;;5013382;28;20058;-45
2023/10/15 02:33:45;;;;;;;8.02;2.20;;;8.10;99.90;;;;;;5012907;28;20041;-48
2023/10/15 02:36:15;;;;;;;6.60;2.75;;;8.00;99.90;;;;;;5012570;28;20029;-47
2023/10/15 02:38:52;;;;;;;3.85;1.90;;;8.00;99.90;;;;;;5012627;28;20080;-50
2023/10/15 02:41:21;;;;;;;6.85;2.05;;;7.90;99.90;;;;;;5012713;28;20029;-45
2023/10/15 02:43:53;;;;;;;2.80;1.85;;;7.80;99.90;;;;;;5012635;28;20108;-49
2023/10/15 02:46:22;;;;;;;7.88;2.83;;;7.80;99.90;;;;;;5013121;28;20367;-44
2023/10/15 02:48:53;;;;;;;4.45;2.33;;;7.80;99.90;;;;;;5012516;28;20021;-45
2023/10/15 02:51:23;;;;;;;7.85;2.42;;;7.90;99.90;;;;;;5011954;28;20029;-50
2023/10/15 02:53:53;;;;;;;4.95;1.80;;;7.90;99.90;;;;;;5012067;28;20029;-48
2023/10/15 02:56:20;;;;;;;5.13;2.25;;;7.80;99.90;;;;;;5012012;28;20033;-44
2023/10/15 02:58:46;;;;;;;7.18;3.33;;;7.80;99.90;;;;;;5012151;28;20113;-45
2023/10/15 03:01:23;;;;;;;4.97;2.35;;;7.80;99.90;;;;;;5012114;28;20434;-42
2023/10/15 03:03:53;;;;;;;5.40;1.70;;;7.90;99.90;;;;;;5012105;28;20022;-45
2023/10/15 03:06:24;;;;;;;7.93;2.08;;;7.90;99.90;;;;;;5012170;28;20076;-44
2023/10/15 03:08:51;;;;;;;8.52;3.17;;;7.80;99.90;;;;;;5012408;28;20036;-47
2023/10/15 03:11:19;;;;;;;10.30;2.35;;;7.80;99.90;;;;;;5012470;28;20026;-44
2023/10/15 03:14:00;;;;;;;5.47;2.78;;;7.80;99.90;;;;;;5010702;28;20402;-46
2023/10/15 03:16:32;;;;;;;9.82;2.63;;;7.90;99.90;;;;;;5012234;28;20033;-47
2023/10/15 03:19:09;;;;;;;4.50;2.00;;;7.90;99.90;;;;;;5012459;28;20026;-45
2023/10/15 03:21:39;;;;;;;7.95;2.58;;;8.00;99.90;;;;;;5012004;28;20036;-47
2023/10/15 03:24:05;;;;;;;9.57;2.97;;;8.00;99.90;;;;;;5011961;28;20022;-45
2023/10/15 03:26:34;;;;;;;5.80;2.40;;;8.10;99.90;;;;;;5011673;28;20101;-45
2023/10/15 03:29:13;;;;;;;7.78;2.95;;;8.10;99.90;;;;;;5011801;28;20026;-45
2023/10/15 03:31:45;;;;;;;8.43;2.70;;;8.10;99.90;;;;;;5011988;28;20029;-44
2023/10/15 03:36:57;;;;;;;5.20;2.25;;;8.10;99.90;;;;;;5011453;28;20109;-49
2023/10/15 03:42:17;;;;;;;7.50;2.10;;;8.00;99.90;;;;;;5011794;28;20125;-45
2023/10/15 03:44:44;;;;;;;11.68;2.65;;;8.00;99.90;;;;;;5011514;28;20249;-46
2023/10/15 03:47:15;;;;;;;4.10;1.98;;;8.00;99.90;;;;;;5011417;28;20112;-45
2023/10/15 03:49:46;;;;;;;7.63;2.83;;;8.00;99.90;;;;;;5011265;28;20092;-46
2023/10/15 03:52:20;;;;;;;6.93;1.90;;;7.90;99.90;;;;;;5011752;28;20597;-45
2023/10/15 03:54:52;;;;;;;3.72;2.22;;;7.90;99.90;;;;;;5010427;28;20022;-46
2023/10/15 03:57:19;;;;;;;5.05;2.40;;;7.90;99.90;;;;;;5011092;28;20113;-47
2023/10/15 03:59:51;;;;;;;5.00;2.45;;;7.90;99.90;;;;;;5011631;28;20590;-46
2023/10/15 04:02:29;;;;;;;6.00;2.40;;;7.80;99.90;;;;;;5013581;28;20054;-51
2023/10/15 04:05:01;;;;;;;6.28;2.67;;;7.80;99.90;;;;;;5015184;28;20018;-45
2023/10/15 04:07:30;;;;;;;5.88;2.30;;;7.70;99.90;;;;;;5015174;28;20022;-47
2023/10/15 04:09:57;;;;;;;9.43;2.80;;;7.70;99.90;;;;;;5015186;28;20022;-46
2023/10/15 04:12:27;;;;;;;6.85;2.55;;;7.70;99.90;;;;;;5015016;28;20030;-47
2023/10/15 04:14:54;;;;;;;7.88;2.45;;;7.60;99.90;;;;;;5014986;28;20029;-47
2023/10/15 04:17:20;;;;;;;5.72;2.55;;;7.50;99.90;;;;;;5014699;28;20378;-47
2023/10/15 04:19:46;;;;;;;7.10;2.35;;;7.50;99.90;;;;;;5015028;28;20080;-48
2023/10/15 04:22:14;;;;;;;3.33;1.90;;;7.50;99.90;;;;;;5014802;28;20026;-48
2023/10/15 04:24:46;;;;;;;6.22;2.40;;;7.50;99.90;;;;;;5014752;28;20041;-50
2023/10/15 04:27:16;;;;;;;7.60;2.20;;;7.50;99.90;;;;;;5014544;28;20042;-48
2023/10/15 04:29:49;;;;;;;8.30;2.45;;;7.40;99.90;;;;;;5014780;28;20025;-44
2023/10/15 04:32:22;;;;;;;7.82;3.58;;;7.30;99.90;;;;;;5014825;28;20064;-46
2023/10/15 04:34:51;;;;;;;9.50;2.03;;;7.20;99.90;;;;;;5014629;28;20029;-46
2023/10/15 04:37:20;;;;;;;5.47;2.65;;;7.20;99.90;;;;;;5013146;28;20110;-50
2023/10/15 04:39:54;;;;;;;6.43;2.08;;;7.20;99.90;;;;;;5014580;28;20037;-49
2023/10/15 04:42:21;;;;;;;14.80;4.07;;;7.20;99.90;;;;;;5014498;28;20056;-45
2023/10/15 04:44:49;;;;;;;5.20;2.50;;;7.20;99.90;;;;;;5014499;28;20389;-49
2023/10/15 04:47:22;;;;;;;6.10;2.30;;;7.20;99.90;;;;;;5014647;28;20049;-49
2023/10/15 04:49:47;;;;;;;5.25;2.35;;;7.20;99.90;;;;;;5014126;28;20385;-45
2023/10/15 04:52:15;;;;;;;11.13;3.97;;;7.20;99.90;;;;;;5014324;28;20030;-51
2023/10/15 04:54:40;;;;;;;7.18;2.45;;;7.10;99.90;;;;;;5014424;28;20084;-46
2023/10/15 04:57:06;;;;;;;7.15;2.75;;;7.10;99.90;;;;;;5013884;28;20204;-44
2023/10/15 04:59:32;;;;;;;4.32;2.50;;;7.20;99.90;;;;;;5012931;28;20113;-48
2023/10/15 05:01:57;;;;;;;7.32;2.63;;;7.20;99.90;;;;;;5014006;28;20037;-49
2023/10/15 05:04:25;;;;;;;7.20;3.78;;;7.20;99.90;;;;;;5014035;28;20021;-45
2023/10/15 05:06:50;;;;;;;7.53;2.67;;;7.20;99.90;;;;;;5013845;28;20099;-45
2023/10/15 05:09:21;;;;;;;5.88;2.67;;;7.10;99.90;;;;;;5014079;28;20054;-44
2023/10/15 05:11:49;;;;;;;5.75;2.25;;;7.20;99.90;;;;;;5014060;28;20025;-48
2023/10/15 05:14:15;;;;;;;8.82;2.85;;;7.20;99.90;;;;;;5012376;28;20508;-50
2023/10/15 05:16:40;;;;;;;7.15;2.63;;;7.20;99.90;;;;;;5013594;28;20069;-50
2023/10/15 05:19:06;;;;;;;7.13;2.60;;;7.10;99.90;;;;;;5013955;28;20213;-46
2023/10/15 05:21:32;;;;;;;7.78;2.72;;;7.10;99.90;;;;;;5013905;28;20030;-50
2023/10/15 05:23:58;;;;;;;14.05;3.10;;;7.10;99.90;;;;;;5013679;28;20363;-46
2023/10/15 05:26:25;;;;;;;10.48;2.67;;;7.10;99.90;;;;;;5013477;28;20480;-46
2023/10/15 05:28:51;;;;;;;6.20;2.33;;;7.10;99.90;;;;;;5013656;28;20592;-45
2023/10/15 05:31:16;;;;;;;9.60;2.58;;;7.10;99.90;;;;;;5013644;28;20109;-50
2023/10/15 05:33:42;;;;;;;7.57;2.92;;;7.10;99.90;;;;;;5013557;28;20079;-45
2023/10/15 05:36:08;;;;;;;11.50;2.90;;;7.10;99.90;;;;;;5013236;28;20511;-45
2023/10/15 05:38:33;;;;;;;7.00;2.53;;;7.10;99.90;;;;;;5013669;28;20564;-44
2023/10/15 05:40:59;;;;;;;13.32;3.17;;;7.00;99.90;;;;;;5013365;28;20065;-48
2023/10/15 05:43:26;;;;;;;10.40;2.75;;;7.00;99.90;;;;;;5013274;28;20022;-49
2023/10/15 05:45:52;;;;;;;11.45;3.17;;;7.10;99.90;;;;;;5013227;28;20064;-46
2023/10/15 05:48:17;;;;;;;11.23;2.85;;;7.10;99.90;;;;;;5013203;28;20486;-46
2023/10/15 05:50:48;;;;;;;9.63;2.65;;;7.10;99.90;;;;;;5012983;28;20117;-44
2023/10/15 05:53:13;;;;;;;6.05;2.90;;;7.10;99.90;;;;;;5013100;28;20072;-50
2023/10/15 05:55:39;;;;;;;4.65;2.17;;;7.20;99.90;;;;;;5013039;28;20061;-47
2023/10/15 05:58:07;;;;;;;7.03;2.80;;;7.20;99.90;;;;;;5020134;23;20346;-45
2023/10/15 06:00:39;;;;;;;6.22;2.85;;;7.20;99.90;;;;;;4984051;28;20023;-53
2023/10/15 06:03:10;;;;;;;15.18;2.97;;;7.20;99.90;;;;;;4992613;28;20061;-47
2023/10/15 06:05:36;;;;;;;7.25;2.80;;;7.20;99.90;;;;;;4986373;28;20047;-55
2023/10/15 06:08:04;;;;;;;7.05;2.58;;;7.20;99.90;;;;;;4993903;28;20023;-47
2023/10/15 06:10:29;;;;;;;6.68;2.90;;;7.20;99.90;;;;;;4992278;28;20072;-51
2023/10/15 06:12:56;;;;;;;6.25;2.83;;;7.40;99.90;;;;;;4993304;28;20034;-49
2023/10/15 06:15:22;;;;;;;6.10;3.05;;;7.40;99.90;;;;;;4982438;28;20023;-51
2023/10/15 06:17:47;;;;;;;13.60;2.95;;;7.50;99.90;;;;;;4973457;28;20098;-52
2023/10/15 06:20:13;;;;;;;4.60;3.20;;;7.60;99.90;;;;;;4979406;28;20077;-49
2023/10/15 06:22:39;;;;;;;8.63;2.70;;;7.80;99.90;;;;;;4993037;28;20577;-49
2023/10/15 06:25:08;;;;;;;8.80;2.60;;;8.00;99.90;;;;;;4990906;28;20030;-50
2023/10/15 06:27:35;;;;;;;7.45;2.50;;;8.30;99.90;;;;;;4991439;28;20437;-47
2023/10/15 06:30:07;;;;;;;3.80;2.08;;;8.60;99.90;;;;;;4993055;28;20018;-49
2023/10/15 06:32:32;;;;;;;6.55;2.58;;;9.10;99.90;;;;;;4993058;28;20030;-47
2023/10/15 06:34:59;;;;;;;6.75;1.90;;;9.60;99.90;;;;;;4993117;28;20033;-49
2023/10/15 06:37:25;;;;;;;5.28;1.98;;;10.30;99.90;;;;;;4992228;28;20110;-48
2023/10/15 06:39:51;;;;;;;5.43;3.05;;;10.80;99.90;;;;;;4993132;28;20049;-51
2023/10/15 06:42:16;;;;;;;6.32;2.30;;;11.30;99.90;;;;;;4992230;28;20101;-57
2023/10/15 06:44:42;;;;;;;6.30;2.05;;;11.60;99.90;;;;;;4992743;28;20109;-52
2023/10/15 06:47:08;;;;;;;5.75;2.08;;;11.80;99.90;;;;;;4992425;28;20022;-54
2023/10/15 06:49:34;;;;;;;5.93;2.65;;;11.80;99.90;;;;;;4992676;28;20022;-54
2023/10/15 06:52:00;;;;;;;10.45;2.45;;;11.60;99.90;;;;;;4992390;28;20026;-49
2023/10/15 06:54:26;;;;;;;3.15;1.73;;;11.40;99.90;;;;;;4992720;28;20624;-50
2023/10/15 06:56:51;;;;;;;5.65;2.13;;;11.30;99.90;;;;;;4992116;28;21428;-51
2023/10/15 06:59:17;;;;;;;8.15;2.67;;;11.10;99.90;;;;;;4992147;28;20033;-49
2023/10/15 07:01:43;;;;;;;6.85;2.13;;;10.90;99.90;;;;;;4992377;28;20113;-50
2023/10/15 07:04:11;;;;;;;6.30;2.17;;;10.90;99.90;;;;;;4991458;28;20027;-47
2023/10/15 07:06:37;;;;;;;5.43;2.35;;;11.10;99.90;;;;;;4992286;28;20029;-48
2023/10/15 07:09:03;;;;;;;5.15;1.58;;;11.50;99.90;;;;;;4992718;28;20050;-51
2023/10/15 07:11:28;;;;;;;5.07;1.70;;;11.80;99.90;;;;;;4992633;28;20428;-50
2023/10/15 07:13:54;;;;;;;8.23;1.98;;;12.10;99.90;;;;;;4991250;28;20038;-49
2023/10/15 07:16:20;;;;;;;7.15;2.50;;;12.10;99.90;;;;;;4990633;28;20030;-46
2023/10/15 07:18:45;;;;;;;5.00;2.08;;;12.00;99.90;;;;;;4992669;28;20050;-46
2023/10/15 07:21:11;;;;;;;7.57;2.15;;;11.70;99.90;;;;;;4992383;28;20446;-49
2023/10/15 07:23:37;;;;;;;6.03;2.20;;;11.40;99.90;;;;;;4992192;28;20029;-48
2023/10/15 07:26:03;;;;;;;7.50;1.83;;;11.20;99.90;;;;;;4990917;28;20033;-46
2023/10/15 07:28:29;;;;;;;6.13;2.13;;;10.90;99.90;;;;;;4992086;28;20102;-46
2023/10/15 07:30:55;;;;;;;8.90;2.28;;;10.80;99.90;;;;;;4992045;28;20309;-49
2023/10/15 07:33:21;;;;;;;7.93;2.13;;;10.60;99.90;;;;;;4991854;28;20023;-47
2023/10/15 07:35:48;;;;;;;7.55;2.00;;;10.60;99.90;;;;;;4993294;28;20478;-46
2023/10/15 07:38:14;;;;;;;4.28;1.73;;;10.50;99.90;;;;;;4995604;28;20394;-46
2023/10/15 07:40:40;;;;;;;10.98;2.42;;;10.50;99.90;;;;;;4996152;28;20375;-48
2023/10/15 07:43:08;;;;;;;9.55;2.33;;;10.40;99.90;;;;;;4995574;28;20023;-47
2023/10/15 07:45:34;;;;;;;10.25;3.78;;;10.50;99.90;;;;;;4995630;28;20026;-47
2023/10/15 07:48:04;;;;;;;5.43;2.75;;;10.40;99.90;;;;;;4995699;28;20505;-47
2023/10/15 07:50:31;;;;;;;6.00;2.65;;;10.40;99.90;;;;;;4995961;28;20037;-48
2023/10/15 07:52:57;;;;;;;8.13;1.98;;;10.50;99.90;;;;;;4995596;28;20030;-46
2023/10/15 07:55:26;;;;;;;2.78;1.77;;;10.60;99.90;;;;;;4994564;28;20402;-47
2023/10/15 07:57:52;;;;;;;5.63;2.33;;;10.70;99.90;;;;;;4995391;28;20498;-47
2023/10/15 08:00:29;;;;;;;6.03;2.13;;;10.80;99.90;;;;;;4995760;28;20105;-49
2023/10/15 08:02:58;;;;;;;7.15;2.97;;;10.90;99.90;;;;;;4994978;28;20030;-50
2023/10/15 08:05:24;;;;;;;10.48;2.58;;;11.10;99.90;;;;;;4995670;28;20585;-48
2023/10/15 08:07:51;;;;;;;8.48;2.20;;;11.10;99.90;;;;;;4993950;28;20026;-49
2023/10/15 08:10:20;;;;;;;5.32;2.03;;;11.10;99.90;;;;;;4996020;28;20022;-48
2023/10/15 08:12:49;;;;;;;7.68;2.47;;;11.20;99.90;;;;;;4994896;28;20023;-51
2023/10/15 08:15:15;;;;;;;6.55;1.98;;;11.30;99.90;;;;;;4995307;28;20113;-51
2023/10/15 08:17:41;;;;;;;5.50;2.13;;;11.30;99.90;;;;;;4995230;28;20490;-50
2023/10/15 08:20:09;;;;;;;5.85;1.83;;;11.20;99.90;;;;;;4995243;28;20117;-52
2023/10/15 08:22:35;;;;;;;6.15;2.28;;;11.10;99.90;;;;;;4995212;28;20032;-51
2023/10/15 08:25:01;;;;;;;9.30;2.97;;;11.00;99.90;;;;;;4995364;28;20453;-53
2023/10/15 08:27:26;;;;;;;4.63;1.50;;;11.00;99.90;;;;;;4995049;28;20226;-55
2023/10/15 08:29:52;;;;;;;5.72;2.20;;;10.80;99.90;;;;;;4995314;28;20022;-50
2023/10/15 08:32:17;;;;;;;11.45;2.88;;;10.80;99.90;;;;;;4993662;28;20375;-52
2023/10/15 08:34:47;;;;;;;9.15;2.53;;;10.60;99.90;;;;;;4995133;28;20114;-50
2023/10/15 08:37:13;;;;;;;5.38;2.10;;;10.60;99.90;;;;;;4994738;28;20077;-52
2023/10/15 08:39:39;;;;;;;5.80;2.35;;;10.70;99.90;;;;;;4995184;28;20037;-51
2023/10/15 08:42:13;;;;;;;4.65;2.08;;;10.70;99.90;;;;;;4994870;28;20034;-51
2023/10/15 08:44:40;;;;;;;8.07;2.42;;;10.60;99.90;;;;;;4995015;28;20316;-47
2023/10/15 08:47:09;;;;;;;6.07;1.90;;;10.60;99.90;;;;;;4993425;28;20022;-51
2023/10/15 08:49:39;;;;;;;6.15;1.92;;;10.70;99.90;;;;;;4993270;28;20031;-52
2023/10/15 08:52:06;;;;;;;6.57;2.05;;;10.70;99.90;;;;;;4994673;28;20026;-48
2023/10/15 08:54:38;;;;;;;4.68;2.13;;;10.90;99.90;;;;;;4994668;28;20114;-54
2023/10/15 08:57:08;;;;;;;5.93;1.73;;;10.80;99.90;;;;;;4994125;28;20026;-48
2023/10/15 08:59:35;;;;;;;5.45;2.05;;;10.80;99.90;;;;;;4994791;28;20513;-50
2023/10/15 09:02:05;;;;;;;10.93;1.85;;;10.80;99.90;;;;;;4994204;28;20041;-51
2023/10/15 09:04:31;;;;;;;8.27;2.55;;;11.00;99.90;;;;;;4995044;28;20026;-51
2023/10/15 09:07:01;;;;;;;3.60;1.88;;;11.10;99.90;;;;;;4995176;28;20045;-50
2023/10/15 09:09:29;;;;;;;5.57;1.73;;;11.50;99.90;;;;;;4995348;28;20677;-49
2023/10/15 09:11:55;;;;;;;5.32;2.33;;;11.90;99.90;;;;;;4995325;28;20034;-51
2023/10/15 09:14:43;;;;;;;4.45;1.95;;;12.20;99.90;;;;;;4994556;28;20030;-48
2023/10/15 09:17:14;;;;;;;3.38;1.67;;;12.50;99.90;;;;;;4994377;28;20485;-52
2023/10/15 09:19:44;;;;;;;8.35;1.85;;;12.40;99.90;;;;;;4994369;28;20427;-51
2023/10/15 09:22:16;;;;;;;10.48;2.20;;;12.40;99.90;;;;;;4994416;28;20030;-52
2023/10/15 09:24:42;;;;;;;5.70;1.60;;;12.40;99.90;;;;;;4993791;28;20161;-47
2023/10/15 09:27:08;;;;;;;5.72;1.55;;;12.40;99.90;;;;;;4993678;28;20498;-48
2023/10/15 09:29:33;;;;;;;15.40;1.83;;;12.60;99.90;;;;;;4994549;28;20118;-51
2023/10/15 09:32:02;;;;;;;5.07;2.17;;;13.40;99.90;;;;;;4994221;28;20044;-52
2023/10/15 09:34:29;;;;;;;2.40;1.33;;;13.90;99.90;;;;;;4993984;28;20029;-53
2023/10/15 09:36:54;;;;;;;6.85;1.50;;;14.20;99.90;;;;;;4994100;28;20034;-47
2023/10/15 09:39:20;;;;;;;6.15;1.73;;;14.80;99.90;;;;;;4993872;28;20033;-47
2023/10/15 09:41:45;;;;;;;4.72;1.60;;;15.00;99.90;;;;;;4994002;28;20026;-49
2023/10/15 09:44:16;;;;;;;4.45;1.55;;;14.80;99.90;;;;;;4994258;28;20038;-46
2023/10/15 09:46:44;;;;;;;4.55;1.80;;;14.80;99.90;;;;;;4994436;28;20019;-46
2023/10/15 09:49:12;;;;;;;4.82;1.38;;;14.80;99.90;;;;;;4994115;28;20030;-46
2023/10/15 09:51:38;;;;;;;1.08;1.00;;;14.90;99.90;;;;;;4994265;28;20109;-46
2023/10/15 09:54:06;;;;;;;5.43;1.80;;;15.00;99.90;;;;;;4994392;28;20085;-53
2023/10/15 09:56:34;;;;;;;2.90;1.55;;;14.60;99.90;;;;;;4993271;28;20491;-48
2023/10/15 09:59:02;;;;;;;5.05;1.27;;;14.30;99.90;;;;;;4993960;28;20391;-46
2023/10/15 10:01:30;;;;;;;3.35;1.23;;;14.50;99.90;;;;;;4993402;28;20061;-46
2023/10/15 10:04:25;;;;;;;6.05;1.10;;;14.80;99.90;;;;;;4993490;28;20053;-47
2023/10/15 10:07:03;;;;;;;5.20;1.20;;;14.80;99.90;;;;;;4993315;28;20106;-47
2023/10/15 10:10:13;;;;;;;3.28;0.93;;;14.50;99.90;;;;;;4993557;28;20099;-48
2023/10/15 10:13:04;;;;;;;4.00;1.00;;;14.30;99.90;;;;;;4993062;28;20521;-46
2023/10/15 10:15:42;;;;;;;5.43;1.35;;;14.30;99.90;;;;;;4993035;28;20402;-47
2023/10/15 10:18:08;;;;;;;3.35;1.10;;;14.10;99.90;;;;;;4993338;28;20030;-49
2023/10/15 10:20:37;;;;;;;3.17;0.88;;;13.90;99.90;;;;;;4993370;28;20030;-53
2023/10/15 10:23:06;;;;;;;2.13;1.00;;;13.70;99.90;;;;;;4992495;28;20037;-47
2023/10/15 10:25:42;;;;;;;2.95;1.15;;;13.70;99.90;;;;;;4992935;28;20028;-46
2023/10/15 10:28:10;;;;;;;2.78;1.05;;;13.50;99.90;;;;;;4991185;28;20049;-49
2023/10/15 10:30:37;;;;;;;1.80;1.00;;;13.20;99.90;;;;;;4993001;28;20038;-48
2023/10/15 10:33:03;;;;;;;2.00;1.15;;;13.10;99.90;;;;;;4993605;28;20029;-47
2023/10/15 10:35:41;;;;;;;1.95;1.10;;;12.80;99.90;;;;;;4993327;28;20018;-54
2023/10/15 10:38:11;;;;;;;49.85;30.15;;;12.50;99.90;;;;;;4992324;28;20023;-50
2023/10/15 10:41:04;;;;;;;2.63;1.60;;;12.40;99.90;;;;;;4992837;28;20022;-48
2023/10/15 10:43:30;;;;;;;2.10;0.90;;;12.40;99.90;;;;;;4992042;28;20491;-51
2023/10/15 10:45:58;;;;;;;1.63;1.05;;;12.60;99.90;;;;;;4992079;28;20406;-47
2023/10/15 10:48:35;;;;;;;1.77;1.05;;;12.80;99.90;;;;;;4992469;28;20434;-49
2023/10/15 10:51:15;;;;;;;1.85;1.02;;;13.00;99.90;;;;;;4989246;28;20022;-52
2023/10/15 10:53:56;;;;;;;4.10;1.10;;;13.30;99.90;;;;;;4988940;28;20413;-50
2023/10/15 10:56:55;;;;;;;4.97;1.15;;;13.40;99.90;;;;;;4971993;28;20026;-50
2023/10/15 10:59:21;;;;;;;1.13;1.00;;;13.40;99.90;;;;;;4980472;28;20077;-51
2023/10/15 11:01:46;;;;;;;5.10;1.30;;;13.40;99.90;;;;;;4992441;28;20046;-45
2023/10/15 11:04:16;;;;;;;3.00;1.30;;;13.20;99.90;;;;;;4992252;28;20027;-50
2023/10/15 11:06:45;;;;;;;4.20;1.02;;;13.10;99.90;;;;;;4992117;28;20397;-50
2023/10/15 11:09:21;;;;;;;4.32;0.65;;;13.10;99.90;;;;;;4992141;28;20030;-50
2023/10/15 11:11:48;;;;;;;5.22;1.00;;;13.20;99.90;;;;;;4991737;28;20076;-52
2023/10/15 11:14:15;;;;;;;1.77;1.55;;;13.20;99.20;;;;;;4991970;28;20030;-52
2023/10/15 11:16:44;;;;;;;2.53;0.80;;;13.20;99.80;;;;;;4991775;28;20076;-51
2023/10/15 11:19:21;;;;;;;1.00;0.63;;;13.40;99.20;;;;;;4992008;28;20053;-50
2023/10/15 11:21:48;;;;;;;5.63;1.08;;;13.40;98.70;;;;;;4991976;28;20018;-51
2023/10/15 11:24:15;;;;;;;3.15;1.05;;;13.40;98.90;;;;;;4990745;28;20508;-49
2023/10/15 11:26:42;;;;;;;2.17;0.75;;;13.50;98.70;;;;;;4992286;28;20058;-53
2023/10/15 11:29:15;;;;;;;1.45;0.70;;;13.50;99.30;;;;;;4991967;28;20034;-53
2023/10/15 11:31:44;;;;;;;1.85;1.20;;;13.60;99.00;;;;;;4992020;28;20105;-48
2023/10/15 11:34:17;;;;;;;1.17;0.80;;;13.60;99.30;;;;;;4991825;28;20058;-53
2023/10/15 11:36:43;;;;;;;1.27;0.75;;;13.60;99.40;;;;;;4991859;28;20030;-48
2023/10/15 11:39:18;;;;;;;0.70;0.70;;;13.70;99.20;;;;;;4992126;28;20023;-47
2023/10/15 11:41:49;;;;;;;3.85;0.73;;;13.60;99.20;;;;;;4992344;28;20049;-48
2023/10/15 11:44:15;;;;;;;2.35;1.13;;;13.60;98.40;;;;;;4992677;28;20037;-47
2023/10/15 11:46:41;;;;;;;2.08;0.80;;;13.60;97.90;;;;;;4991703;28;20018;-47
2023/10/15 11:49:09;;;;;;;2.95;0.70;;;13.60;97.40;;;;;;4992197;28;20027;-52
2023/10/15 11:51:35;;;;;;;2.17;0.82;;;13.70;97.30;;;;;;4992093;28;20429;-54
2023/10/15 11:54:01;;;;;;;2.63;1.30;;;13.50;98.10;;;;;;4991988;28;20486;-55
2023/10/15 11:56:31;;;;;;;5.22;1.10;;;13.40;99.30;;;;;;4992115;28;20030;-52
2023/10/15 11:58:58;;;;;;;75.47;46.03;;;13.10;99.90;;;;;;5022272;23;20038;-48
2023/10/15 12:01:26;;;;;;;17.95;10.25;;;12.50;99.90;;;;;;4991774;28;20109;-51
2023/10/15 12:03:52;;;;;;;4.68;1.70;;;12.30;99.90;;;;;;4991777;28;20038;-49
2023/10/15 12:06:18;;;;;;;2.80;1.00;;;12.00;99.90;;;;;;5003549;28;20023;-54
2023/10/15 12:08:43;;;;;;;3.35;0.73;;;11.80;99.90;;;;;;4991766;28;20418;-47
2023/10/15 12:11:09;;;;;;;2.83;1.02;;;11.60;99.90;;;;;;5005762;28;20426;-47
2023/10/15 12:13:34;;;;;;;4.35;0.73;;;11.50;99.90;;;;;;5031305;28;20432;-46
2023/10/15 12:16:00;;;;;;;2.38;0.90;;;11.30;99.90;;;;;;5031034;28;20433;-45
2023/10/15 12:18:26;;;;;;;1.40;1.02;;;11.10;99.90;;;;;;5031080;28;20428;-51
2023/10/15 12:20:52;;;;;;;2.08;1.08;;;11.00;99.90;;;;;;5031077;28;20033;-47
2023/10/15 12:23:19;;;;;;;0.50;0.43;;;11.00;99.90;;;;;;5009706;28;20030;-47
2023/10/15 12:25:45;;;;;;;3.55;0.80;;;10.80;99.90;;;;;;4995574;28;20018;-47
2023/10/15 12:28:11;;;;;;;0.60;0.57;;;10.70;99.90;;;;;;5002470;28;20021;-52
2023/10/15 12:30:36;;;;;;;1.40;0.60;;;10.70;99.90;;;;;;5013526;28;20076;-49
2023/10/15 12:33:02;;;;;;;3.70;0.98;;;10.70;99.90;;;;;;5015081;28;20030;-48
2023/10/15 12:35:27;;;;;;;1.92;0.57;;;10.70;99.90;;;;;;5014919;28;20394;-45
2023/10/15 12:38:02;;;;;;;0.40;0.40;;;10.80;99.90;;;;;;5014745;28;20080;-46
2023/10/15 12:40:32;;;;;;;3.42;0.47;;;10.90;99.90;;;;;;5006839;28;20034;-46
2023/10/15 12:43:08;;;;;;;0.60;0.50;;;10.80;99.90;;;;;;4994762;28;20090;-50
2023/10/15 12:45:37;;;;;;;1.05;0.60;;;10.80;99.90;;;;;;4994988;28;20132;-45
2023/10/15 12:48:04;;;;;;;0.50;0.50;;;10.90;99.90;;;;;;5014061;28;20026;-48
2023/10/15 12:50:31;;;;;;;5.03;0.70;;;11.00;99.90;;;;;;5014421;28;20018;-48
2023/10/15 12:52:58;;;;;;;2.80;0.70;;;11.00;99.90;;;;;;5014083;28;20033;-49
2023/10/15 12:55:24;;;;;;;0.82;0.73;;;11.10;99.90;;;;;;5014494;28;20109;-49
2023/10/15 12:57:50;;;;;;;3.00;1.10;;;11.00;99.90;;;;;;5013765;28;20109;-51
2023/10/15 13:00:21;;;;;;;1.45;1.35;;;11.00;99.90;;;;;;5014554;28;20030;-48
2023/10/15 13:02:51;;;;;;;4.00;1.23;;;11.00;99.90;;;;;;5013854;28;20065;-48
2023/10/15 13:05:18;;;;;;;3.17;1.05;;;11.00;99.90;;;;;;5014009;28;20038;-48
2023/10/15 13:07:43;;;;;;;5.88;1.20;;;11.00;99.90;;;;;;5014152;28;20022;-49
2023/10/15 13:10:09;;;;;;;7.82;2.03;;;11.00;99.90;;;;;;5014259;28;20108;-51
2023/10/15 13:12:36;;;;;;;5.97;1.50;;;11.10;99.90;;;;;;5013944;28;20030;-47
2023/10/15 13:15:02;;;;;;;1.00;0.80;;;11.10;99.90;;;;;;5011779;28;20041;-49
2023/10/15 13:17:28;;;;;;;2.10;1.05;;;11.10;99.90;;;;;;4996383;28;20077;-47
2023/10/15 13:19:54;;;;;;;2.67;1.27;;;11.00;99.90;;;;;;4994924;28;20034;-51